sensor_id;sensor_type;location;lat;lon;timestamp;temperature;humidity
63407;SHT31;49543;45.892;10.838;2024-03-23T09:05:19;17.51;68.11
63407;SHT31;49543;45.892;10.838;2024-03-23T09:07:44;17.66;65.89
63407;SHT31;49543;45.892;10.838;2024-03-23T09:10:09;17.71;66.78
63407;SHT31;49543;45.892;10.838;2024-03-23T09:12:35;17.83;66.51
63407;SHT31;49543;45.892;10.838;2024-03-23T09:15:00;17.91;65.20
63407;SHT31;49543;45.892;10.838;2024-03-23T09:17:25;18.02;66.34
63407;SHT31;49543;45.892;10.838;2024-03-23T09:19:50;17.98;65.17
63407;SHT31;49543;45.892;10.838;2024-03-23T09:22:16;17.77;65.79
63407;SHT31;49543;45.892;10.838;2024-03-23T09:24:41;17.65;66.18
63407;SHT31;49543;45.892;10.838;2024-03-23T09:27:06;17.62;67.01
63407;SHT31;49543;45.892;10.838;2024-03-23T09:29:32;17.62;66.51
63407;SHT31;49543;45.892;10.838;2024-03-23T09:31:57;17.60;66.20
63407;SHT31;49543;45.892;10.838;2024-03-23T09:34:22;17.77;64.79
63407;SHT31;49543;45.892;10.838;2024-03-23T09:36:51;17.83;65.02
63407;SHT31;49543;45.892;10.838;2024-03-23T09:39:16;17.90;65.02
63407;SHT31;49543;45.892;10.838;2024-03-23T09:41:42;17.97;65.12
63407;SHT31;49543;45.892;10.838;2024-03-23T09:44:07;18.02;64.17
63407;SHT31;49543;45.892;10.838;2024-03-23T09:46:33;18.08;63.93
63407;SHT31;49543;45.892;10.838;2024-03-23T09:49:01;18.12;64.19
63407;SHT31;49543;45.892;10.838;2024-03-23T09:51:29;18.08;65.43
63407;SHT31;49543;45.892;10.838;2024-03-23T09:53:54;18.00;66.18
63407;SHT31;49543;45.892;10.838;2024-03-23T09:56:19;17.88;68.04
63407;SHT31;49543;45.892;10.838;2024-03-23T09:58:45;17.71;67.43
63407;SHT31;49543;45.892;10.838;2024-03-23T10:01:10;17.66;67.58
63407;SHT31;49543;45.892;10.838;2024-03-23T10:03:42;17.71;65.96
63407;SHT31;49543;45.892;10.838;2024-03-23T10:06:08;17.73;66.25
63407;SHT31;49543;45.892;10.838;2024-03-23T10:08:33;17.80;66.46
63407;SHT31;49543;45.892;10.838;2024-03-23T10:11:12;17.94;64.84
63407;SHT31;49543;45.892;10.838;2024-03-23T10:13:37;17.90;63.50
63407;SHT31;49543;45.892;10.838;2024-03-23T10:16:06;17.93;63.93
63407;SHT31;49543;45.892;10.838;2024-03-23T10:18:31;17.83;64.32
63407;SHT31;49543;45.892;10.838;2024-03-23T10:21:07;17.74;64.14
63407;SHT31;49543;45.892;10.838;2024-03-23T10:23:42;17.60;65.21
63407;SHT31;49543;45.892;10.838;2024-03-23T10:26:14;17.57;65.58
63407;SHT31;49543;45.892;10.838;2024-03-23T10:28:55;17.59;65.48
63407;SHT31;49543;45.892;10.838;2024-03-23T10:31:26;17.49;66.11
63407;SHT31;49543;45.892;10.838;2024-03-23T10:33:51;17.43;66.81
63407;SHT31;49543;45.892;10.838;2024-03-23T10:36:19;17.32;65.09
63407;SHT31;49543;45.892;10.838;2024-03-23T10:38:45;17.29;65.68
63407;SHT31;49543;45.892;10.838;2024-03-23T10:41:11;17.28;66.38
63407;SHT31;49543;45.892;10.838;2024-03-23T10:43:37;17.28;66.12
63407;SHT31;49543;45.892;10.838;2024-03-23T10:46:03;17.23;65.86
63407;SHT31;49543;45.892;10.838;2024-03-23T10:48:28;17.30;66.37
63407;SHT31;49543;45.892;10.838;2024-03-23T10:50:54;17.40;66.01
63407;SHT31;49543;45.892;10.838;2024-03-23T10:53:21;17.56;65.87
63407;SHT31;49543;45.892;10.838;2024-03-23T10:55:49;17.54;66.35
63407;SHT31;49543;45.892;10.838;2024-03-23T10:58:15;17.71;65.82
63407;SHT31;49543;45.892;10.838;2024-03-23T11:00:41;17.78;65.16
63407;SHT31;49543;45.892;10.838;2024-03-23T11:03:29;17.73;65.70
63407;SHT31;49543;45.892;10.838;2024-03-23T11:05:52;17.86;65.30
63407;SHT31;49543;45.892;10.838;2024-03-23T11:08:30;17.97;65.87
63407;SHT31;49543;45.892;10.838;2024-03-23T11:11:11;18.12;66.90
63407;SHT31;49543;45.892;10.838;2024-03-23T11:13:36;18.29;66.95
63407;SHT31;49543;45.892;10.838;2024-03-23T11:16:12;18.56;66.30
63407;SHT31;49543;45.892;10.838;2024-03-23T11:18:38;18.79;65.42
63407;SHT31;49543;45.892;10.838;2024-03-23T11:21:03;19.08;65.00
63407;SHT31;49543;45.892;10.838;2024-03-23T11:23:29;19.34;64.83
63407;SHT31;49543;45.892;10.838;2024-03-23T11:25:54;19.65;63.76
63407;SHT31;49543;45.892;10.838;2024-03-23T11:28:19;19.87;63.16
63407;SHT31;49543;45.892;10.838;2024-03-23T11:31:09;20.18;62.86
63407;SHT31;49543;45.892;10.838;2024-03-23T11:33:34;20.42;61.66
63407;SHT31;49543;45.892;10.838;2024-03-23T11:35:59;20.64;61.75
63407;SHT31;49543;45.892;10.838;2024-03-23T11:38:25;20.85;62.44
63407;SHT31;49543;45.892;10.838;2024-03-23T11:40:50;21.04;62.51
63407;SHT31;49543;45.892;10.838;2024-03-23T11:43:16;21.24;62.54
63407;SHT31;49543;45.892;10.838;2024-03-23T11:45:42;21.42;62.53
63407;SHT31;49543;45.892;10.838;2024-03-23T11:48:09;21.59;61.76
63407;SHT31;49543;45.892;10.838;2024-03-23T11:50:37;21.54;60.56
63407;SHT31;49543;45.892;10.838;2024-03-23T11:53:19;21.49;60.04
63407;SHT31;49543;45.892;10.838;2024-03-23T11:55:56;21.61;60.89
63407;SHT31;49543;45.892;10.838;2024-03-23T11:58:23;21.72;61.53
63407;SHT31;49543;45.892;10.838;2024-03-23T12:00:56;21.83;61.53
63407;SHT31;49543;45.892;10.838;2024-03-23T12:03:23;21.85;60.62
63407;SHT31;49543;45.892;10.838;2024-03-23T12:05:52;21.78;60.65
63407;SHT31;49543;45.892;10.838;2024-03-23T12:08:24;21.42;60.58
63407;SHT31;49543;45.892;10.838;2024-03-23T12:11:04;21.32;61.64
63407;SHT31;49543;45.892;10.838;2024-03-23T12:13:30;21.23;61.09
63407;SHT31;49543;45.892;10.838;2024-03-23T12:15:56;21.10;61.61
63407;SHT31;49543;45.892;10.838;2024-03-23T12:18:34;20.90;62.13
63407;SHT31;49543;45.892;10.838;2024-03-23T12:20:59;20.61;62.02
63407;SHT31;49543;45.892;10.838;2024-03-23T12:23:25;20.39;63.27
63407;SHT31;49543;45.892;10.838;2024-03-23T12:25:50;20.14;64.44
63407;SHT31;49543;45.892;10.838;2024-03-23T12:28:16;19.90;63.11
63407;SHT31;49543;45.892;10.838;2024-03-23T12:30:42;19.74;64.26
63407;SHT31;49543;45.892;10.838;2024-03-23T12:33:07;19.70;64.55
63407;SHT31;49543;45.892;10.838;2024-03-23T12:35:33;19.72;64.93
63407;SHT31;49543;45.892;10.838;2024-03-23T12:37:58;19.65;64.92
63407;SHT31;49543;45.892;10.838;2024-03-23T12:40:25;19.51;65.43
63407;SHT31;49543;45.892;10.838;2024-03-23T12:42:50;19.42;65.73
63407;SHT31;49543;45.892;10.838;2024-03-23T12:45:15;19.32;65.43
63407;SHT31;49543;45.892;10.838;2024-03-23T12:47:41;19.22;65.48
63407;SHT31;49543;45.892;10.838;2024-03-23T12:50:06;19.14;64.80
63407;SHT31;49543;45.892;10.838;2024-03-23T12:52:35;19.10;64.91
63407;SHT31;49543;45.892;10.838;2024-03-23T12:55:00;19.10;65.22
63407;SHT31;49543;45.892;10.838;2024-03-23T12:57:25;19.07;64.88
63407;SHT31;49543;45.892;10.838;2024-03-23T12:59:53;19.07;64.97
63407;SHT31;49543;45.892;10.838;2024-03-23T13:02:19;19.06;65.09
63407;SHT31;49543;45.892;10.838;2024-03-23T13:04:45;19.08;66.37
63407;SHT31;49543;45.892;10.838;2024-03-23T13:07:11;19.07;65.81
63407;SHT31;49543;45.892;10.838;2024-03-23T13:09:36;19.00;65.79
63407;SHT31;49543;45.892;10.838;2024-03-23T13:12:01;19.00;65.98
63407;SHT31;49543;45.892;10.838;2024-03-23T13:14:27;19.00;65.65
63407;SHT31;49543;45.892;10.838;2024-03-23T13:16:52;19.01;65.64
63407;SHT31;49543;45.892;10.838;2024-03-23T13:19:18;18.97;65.95
63407;SHT31;49543;45.892;10.838;2024-03-23T13:21:44;18.98;65.48
63407;SHT31;49543;45.892;10.838;2024-03-23T13:24:09;19.06;65.00
63407;SHT31;49543;45.892;10.838;2024-03-23T13:26:34;19.22;65.00
63407;SHT31;49543;45.892;10.838;2024-03-23T13:28:59;19.31;64.97
63407;SHT31;49543;45.892;10.838;2024-03-23T13:31:25;19.26;64.83
63407;SHT31;49543;45.892;10.838;2024-03-23T13:33:50;19.26;65.06
63407;SHT31;49543;45.892;10.838;2024-03-23T13:36:15;19.19;64.84
63407;SHT31;49543;45.892;10.838;2024-03-23T13:38:41;19.17;65.19
63407;SHT31;49543;45.892;10.838;2024-03-23T13:41:06;19.14;65.66
63407;SHT31;49543;45.892;10.838;2024-03-23T13:43:33;19.14;65.74
63407;SHT31;49543;45.892;10.838;2024-03-23T13:45:59;19.10;65.85
63407;SHT31;49543;45.892;10.838;2024-03-23T13:48:25;19.04;65.83
63407;SHT31;49543;45.892;10.838;2024-03-23T13:50:59;18.98;66.39
63407;SHT31;49543;45.892;10.838;2024-03-23T13:53:25;18.97;65.85
63407;SHT31;49543;45.892;10.838;2024-03-23T13:55:50;19.00;66.37
63407;SHT31;49543;45.892;10.838;2024-03-23T13:58:16;19.03;66.20
63407;SHT31;49543;45.892;10.838;2024-03-23T14:00:41;19.03;66.13
63407;SHT31;49543;45.892;10.838;2024-03-23T14:03:09;19.00;66.18
63407;SHT31;49543;45.892;10.838;2024-03-23T14:05:35;18.94;65.86
63407;SHT31;49543;45.892;10.838;2024-03-23T14:08:01;18.98;65.96
63407;SHT31;49543;45.892;10.838;2024-03-23T14:10:26;18.91;65.49
63407;SHT31;49543;45.892;10.838;2024-03-23T14:12:52;18.94;65.53
63407;SHT31;49543;45.892;10.838;2024-03-23T14:15:18;18.97;64.66
63407;SHT31;49543;45.892;10.838;2024-03-23T14:17:43;19.00;64.88
63407;SHT31;49543;45.892;10.838;2024-03-23T14:20:09;18.96;64.63
63407;SHT31;49543;45.892;10.838;2024-03-23T14:22:36;19.03;64.37
63407;SHT31;49543;45.892;10.838;2024-03-23T14:25:01;19.01;64.19
63407;SHT31;49543;45.892;10.838;2024-03-23T14:27:27;18.93;64.13
63407;SHT31;49543;45.892;10.838;2024-03-23T14:29:52;18.87;64.53
63407;SHT31;49543;45.892;10.838;2024-03-23T14:32:17;18.83;65.67
63407;SHT31;49543;45.892;10.838;2024-03-23T14:34:42;18.79;68.14
63407;SHT31;49543;45.892;10.838;2024-03-23T14:37:08;18.63;70.37
63407;SHT31;49543;45.892;10.838;2024-03-23T14:39:33;18.35;74.32
63407;SHT31;49543;45.892;10.838;2024-03-23T14:42:04;18.09;74.47
63407;SHT31;49543;45.892;10.838;2024-03-23T14:44:29;17.88;76.66
63407;SHT31;49543;45.892;10.838;2024-03-23T14:46:54;17.69;75.37
63407;SHT31;49543;45.892;10.838;2024-03-23T14:49:20;17.56;73.57
63407;SHT31;49543;45.892;10.838;2024-03-23T14:51:45;17.53;74.02
63407;SHT31;49543;45.892;10.838;2024-03-23T14:54:11;17.50;75.00
63407;SHT31;49543;45.892;10.838;2024-03-23T14:56:37;17.57;74.65
63407;SHT31;49543;45.892;10.838;2024-03-23T14:59:03;17.60;73.46
63407;SHT31;49543;45.892;10.838;2024-03-23T15:01:28;17.66;72.93
63407;SHT31;49543;45.892;10.838;2024-03-23T15:03:53;17.67;72.11
63407;SHT31;49543;45.892;10.838;2024-03-23T15:06:19;17.69;71.55
63407;SHT31;49543;45.892;10.838;2024-03-23T15:08:44;17.74;71.41
63407;SHT31;49543;45.892;10.838;2024-03-23T15:11:09;17.78;71.85
63407;SHT31;49543;45.892;10.838;2024-03-23T15:13:35;17.80;72.06
63407;SHT31;49543;45.892;10.838;2024-03-23T15:16:00;17.84;72.17
63407;SHT31;49543;45.892;10.838;2024-03-23T15:18:27;17.81;70.84
63407;SHT31;49543;45.892;10.838;2024-03-23T15:20:58;17.88;71.53
63407;SHT31;49543;45.892;10.838;2024-03-23T15:23:27;17.88;70.82
63407;SHT31;49543;45.892;10.838;2024-03-23T15:25:55;17.93;70.52
63407;SHT31;49543;45.892;10.838;2024-03-23T15:28:24;18.01;69.67
63407;SHT31;49543;45.892;10.838;2024-03-23T15:30:52;18.05;69.74
63407;SHT31;49543;45.892;10.838;2024-03-23T15:33:17;18.09;70.35
63407;SHT31;49543;45.892;10.838;2024-03-23T15:35:43;18.11;70.76
63407;SHT31;49543;45.892;10.838;2024-03-23T15:38:08;18.09;70.97
63407;SHT31;49543;45.892;10.838;2024-03-23T15:40:34;18.05;71.73
63407;SHT31;49543;45.892;10.838;2024-03-23T15:42:59;18.06;71.38
63407;SHT31;49543;45.892;10.838;2024-03-23T15:45:25;18.04;70.93
63407;SHT31;49543;45.892;10.838;2024-03-23T15:47:51;18.06;71.02
63407;SHT31;49543;45.892;10.838;2024-03-23T15:50:17;18.02;71.52
63407;SHT31;49543;45.892;10.838;2024-03-23T15:52:42;18.01;71.41
63407;SHT31;49543;45.892;10.838;2024-03-23T15:55:07;17.98;71.91
63407;SHT31;49543;45.892;10.838;2024-03-23T15:57:35;17.95;71.56
63407;SHT31;49543;45.892;10.838;2024-03-23T16:00:01;17.98;71.08
63407;SHT31;49543;45.892;10.838;2024-03-23T16:02:26;17.95;71.53
63407;SHT31;49543;45.892;10.838;2024-03-23T16:04:53;17.91;72.21
63407;SHT31;49543;45.892;10.838;2024-03-23T16:07:18;17.90;71.88
63407;SHT31;49543;45.892;10.838;2024-03-23T16:09:43;17.90;71.66
63407;SHT31;49543;45.892;10.838;2024-03-23T16:12:08;17.87;70.64
63407;SHT31;49543;45.892;10.838;2024-03-23T16:14:34;17.86;71.28
63407;SHT31;49543;45.892;10.838;2024-03-23T16:16:59;17.87;71.16
63407;SHT31;49543;45.892;10.838;2024-03-23T16:19:24;17.86;70.65
63407;SHT31;49543;45.892;10.838;2024-03-23T16:21:50;17.81;71.18
63407;SHT31;49543;45.892;10.838;2024-03-23T16:24:15;17.86;71.41
63407;SHT31;49543;45.892;10.838;2024-03-23T16:26:40;17.87;70.15
63407;SHT31;49543;45.892;10.838;2024-03-23T16:29:06;17.95;70.52
63407;SHT31;49543;45.892;10.838;2024-03-23T16:31:31;17.98;70.41
63407;SHT31;49543;45.892;10.838;2024-03-23T16:33:56;18.00;70.29
63407;SHT31;49543;45.892;10.838;2024-03-23T16:36:21;18.01;69.34
63407;SHT31;49543;45.892;10.838;2024-03-23T16:38:47;17.98;69.60
63407;SHT31;49543;45.892;10.838;2024-03-23T16:41:12;18.01;70.08
63407;SHT31;49543;45.892;10.838;2024-03-23T16:43:38;18.02;70.76
63407;SHT31;49543;45.892;10.838;2024-03-23T16:46:08;18.00;71.83
63407;SHT31;49543;45.892;10.838;2024-03-23T16:48:36;17.91;72.25
63407;SHT31;49543;45.892;10.838;2024-03-23T16:51:01;17.84;72.41
63407;SHT31;49543;45.892;10.838;2024-03-23T16:53:30;17.81;72.48
63407;SHT31;49543;45.892;10.838;2024-03-23T16:56:00;17.76;71.56
63407;SHT31;49543;45.892;10.838;2024-03-23T16:58:26;17.70;71.44
63407;SHT31;49543;45.892;10.838;2024-03-23T17:00:52;17.67;71.08
63407;SHT31;49543;45.892;10.838;2024-03-23T17:03:21;17.63;70.97
63407;SHT31;49543;45.892;10.838;2024-03-23T17:05:47;17.62;70.38
63407;SHT31;49543;45.892;10.838;2024-03-23T17:08:12;17.59;70.90
63407;SHT31;49543;45.892;10.838;2024-03-23T17:10:38;17.56;71.30
63407;SHT31;49543;45.892;10.838;2024-03-23T17:13:04;17.50;71.89
63407;SHT31;49543;45.892;10.838;2024-03-23T17:15:29;17.45;71.64
63407;SHT31;49543;45.892;10.838;2024-03-23T17:17:55;17.42;71.53
63407;SHT31;49543;45.892;10.838;2024-03-23T17:20:20;17.39;71.81
63407;SHT31;49543;45.892;10.838;2024-03-23T17:22:45;17.33;72.01
63407;SHT31;49543;45.892;10.838;2024-03-23T17:25:17;17.28;71.57
63407;SHT31;49543;45.892;10.838;2024-03-23T17:27:42;17.21;72.40
63407;SHT31;49543;45.892;10.838;2024-03-23T17:30:08;17.18;72.79
63407;SHT31;49543;45.892;10.838;2024-03-23T17:32:33;17.14;73.02
63407;SHT31;49543;45.892;10.838;2024-03-23T17:34:59;17.12;73.30
63407;SHT31;49543;45.892;10.838;2024-03-23T17:37:24;17.08;73.57
63407;SHT31;49543;45.892;10.838;2024-03-23T17:39:49;17.02;73.21
63407;SHT31;49543;45.892;10.838;2024-03-23T17:42:15;16.96;73.24
63407;SHT31;49543;45.892;10.838;2024-03-23T17:44:40;16.89;73.34
63407;SHT31;49543;45.892;10.838;2024-03-23T17:47:05;16.88;73.30
63407;SHT31;49543;45.892;10.838;2024-03-23T17:49:31;16.85;73.55
63407;SHT31;49543;45.892;10.838;2024-03-23T17:51:58;16.80;74.03
63407;SHT31;49543;45.892;10.838;2024-03-23T17:54:25;16.77;73.67
63407;SHT31;49543;45.892;10.838;2024-03-23T17:56:51;16.74;73.70
63407;SHT31;49543;45.892;10.838;2024-03-23T17:59:16;16.71;73.40
63407;SHT31;49543;45.892;10.838;2024-03-23T18:01:41;16.70;73.31
63407;SHT31;49543;45.892;10.838;2024-03-23T18:04:07;16.73;73.58
63407;SHT31;49543;45.892;10.838;2024-03-23T18:06:32;16.68;73.80
63407;SHT31;49543;45.892;10.838;2024-03-23T18:08:57;16.67;74.02
63407;SHT31;49543;45.892;10.838;2024-03-23T18:11:22;16.64;74.39
63407;SHT31;49543;45.892;10.838;2024-03-23T18:13:48;16.59;74.92
63407;SHT31;49543;45.892;10.838;2024-03-23T18:16:13;16.53;74.90
63407;SHT31;49543;45.892;10.838;2024-03-23T18:18:38;16.49;74.38
63407;SHT31;49543;45.892;10.838;2024-03-23T18:21:03;16.46;74.38
63407;SHT31;49543;45.892;10.838;2024-03-23T18:23:30;16.40;74.55
63407;SHT31;49543;45.892;10.838;2024-03-23T18:25:55;16.33;74.48
63407;SHT31;49543;45.892;10.838;2024-03-23T18:28:24;16.25;74.71
63407;SHT31;49543;45.892;10.838;2024-03-23T18:30:59;16.22;73.92
63407;SHT31;49543;45.892;10.838;2024-03-23T18:33:24;16.16;72.43
63407;SHT31;49543;45.892;10.838;2024-03-23T18:35:53;16.10;72.19
63407;SHT31;49543;45.892;10.838;2024-03-23T18:38:19;16.08;72.32
63407;SHT31;49543;45.892;10.838;2024-03-23T18:40:47;16.10;72.34
63407;SHT31;49543;45.892;10.838;2024-03-23T18:43:13;16.06;70.67
63407;SHT31;49543;45.892;10.838;2024-03-23T18:45:50;16.04;70.06
63407;SHT31;49543;45.892;10.838;2024-03-23T18:48:16;16.02;68.27
63407;SHT31;49543;45.892;10.838;2024-03-23T18:50:42;15.95;68.73
63407;SHT31;49543;45.892;10.838;2024-03-23T18:53:08;15.98;69.67
63407;SHT31;49543;45.892;10.838;2024-03-23T18:55:35;15.95;69.46
63407;SHT31;49543;45.892;10.838;2024-03-23T18:58:00;15.94;68.74
63407;SHT31;49543;45.892;10.838;2024-03-23T19:00:25;15.94;68.72
63407;SHT31;49543;45.892;10.838;2024-03-23T19:02:51;15.92;69.14
63407;SHT31;49543;45.892;10.838;2024-03-23T19:05:16;15.94;69.08
63407;SHT31;49543;45.892;10.838;2024-03-23T19:07:41;15.97;69.43
63407;SHT31;49543;45.892;10.838;2024-03-23T19:10:07;15.95;69.83
63407;SHT31;49543;45.892;10.838;2024-03-23T19:12:32;15.92;69.19
63407;SHT31;49543;45.892;10.838;2024-03-23T19:14:57;15.91;68.75
63407;SHT31;49543;45.892;10.838;2024-03-23T19:17:23;15.92;69.57
63407;SHT31;49543;45.892;10.838;2024-03-23T19:19:48;15.87;69.49
63407;SHT31;49543;45.892;10.838;2024-03-23T19:22:13;15.80;70.24
63407;SHT31;49543;45.892;10.838;2024-03-23T19:24:38;15.74;68.77
63407;SHT31;49543;45.892;10.838;2024-03-23T19:27:04;15.74;68.04
63407;SHT31;49543;45.892;10.838;2024-03-23T19:29:29;15.70;65.26
63407;SHT31;49543;45.892;10.838;2024-03-23T19:31:54;15.68;66.21
63407;SHT31;49543;45.892;10.838;2024-03-23T19:34:20;15.67;66.37
63407;SHT31;49543;45.892;10.838;2024-03-23T19:36:45;15.65;66.45
63407;SHT31;49543;45.892;10.838;2024-03-23T19:39:10;15.64;66.68
63407;SHT31;49543;45.892;10.838;2024-03-23T19:41:37;15.64;67.59
63407;SHT31;49543;45.892;10.838;2024-03-23T19:44:03;15.67;66.03
63407;SHT31;49543;45.892;10.838;2024-03-23T19:46:28;15.63;66.34
63407;SHT31;49543;45.892;10.838;2024-03-23T19:48:54;15.55;66.58
63407;SHT31;49543;45.892;10.838;2024-03-23T19:51:19;15.55;67.15
63407;SHT31;49543;45.892;10.838;2024-03-23T19:53:44;15.53;66.41
63407;SHT31;49543;45.892;10.838;2024-03-23T19:56:09;15.51;66.20
63407;SHT31;49543;45.892;10.838;2024-03-23T19:58:36;15.51;65.97
63407;SHT31;49543;45.892;10.838;2024-03-23T20:01:13;15.53;65.21
63407;SHT31;49543;45.892;10.838;2024-03-23T20:03:38;15.53;64.87
63407;SHT31;49543;45.892;10.838;2024-03-23T20:06:04;15.49;65.01
63407;SHT31;49543;45.892;10.838;2024-03-23T20:08:29;15.42;65.18
63407;SHT31;49543;45.892;10.838;2024-03-23T20:10:54;15.42;65.40
63407;SHT31;49543;45.892;10.838;2024-03-23T20:13:20;15.42;64.26
63407;SHT31;49543;45.892;10.838;2024-03-23T20:15:52;15.40;64.30
63407;SHT31;49543;45.892;10.838;2024-03-23T20:18:18;15.40;63.61
63407;SHT31;49543;45.892;10.838;2024-03-23T20:20:43;15.39;62.70
63407;SHT31;49543;45.892;10.838;2024-03-23T20:23:09;15.42;62.62
63407;SHT31;49543;45.892;10.838;2024-03-23T20:25:35;15.40;61.37
63407;SHT31;49543;45.892;10.838;2024-03-23T20:28:00;15.34;61.91
63407;SHT31;49543;45.892;10.838;2024-03-23T20:30:25;15.33;61.61
63407;SHT31;49543;45.892;10.838;2024-03-23T20:32:50;15.29;61.96
63407;SHT31;49543;45.892;10.838;2024-03-23T20:35:16;15.22;61.95
63407;SHT31;49543;45.892;10.838;2024-03-23T20:37:41;15.19;61.73
63407;SHT31;49543;45.892;10.838;2024-03-23T20:40:07;15.18;61.66
63407;SHT31;49543;45.892;10.838;2024-03-23T20:42:32;15.18;61.30
63407;SHT31;49543;45.892;10.838;2024-03-23T20:44:58;15.15;61.72
63407;SHT31;49543;45.892;10.838;2024-03-23T20:47:23;15.13;61.98
63407;SHT31;49543;45.892;10.838;2024-03-23T20:49:48;15.10;61.17
63407;SHT31;49543;45.892;10.838;2024-03-23T20:52:14;15.08;61.72
63407;SHT31;49543;45.892;10.838;2024-03-23T20:54:39;15.06;62.27
63407;SHT31;49543;45.892;10.838;2024-03-23T20:57:04;15.05;62.00
63407;SHT31;49543;45.892;10.838;2024-03-23T20:59:30;15.05;61.81
63407;SHT31;49543;45.892;10.838;2024-03-23T21:01:55;14.99;62.12
63407;SHT31;49543;45.892;10.838;2024-03-23T21:04:20;15.00;62.40
63407;SHT31;49543;45.892;10.838;2024-03-23T21:06:46;14.96;62.50
63407;SHT31;49543;45.892;10.838;2024-03-23T21:09:11;14.88;62.87
63407;SHT31;49543;45.892;10.838;2024-03-23T21:11:36;14.79;63.19
63407;SHT31;49543;45.892;10.838;2024-03-23T21:14:01;14.74;62.77
63407;SHT31;49543;45.892;10.838;2024-03-23T21:16:27;14.72;62.53
63407;SHT31;49543;45.892;10.838;2024-03-23T21:18:52;14.72;62.84
63407;SHT31;49543;45.892;10.838;2024-03-23T21:21:19;14.67;63.32
63407;SHT31;49543;45.892;10.838;2024-03-23T21:23:44;14.60;63.66
63407;SHT31;49543;45.892;10.838;2024-03-23T21:26:10;14.57;63.94
63407;SHT31;49543;45.892;10.838;2024-03-23T21:28:35;14.56;63.93
63407;SHT31;49543;45.892;10.838;2024-03-23T21:31:03;14.51;63.52
63407;SHT31;49543;45.892;10.838;2024-03-23T21:33:29;14.52;63.54
63407;SHT31;49543;45.892;10.838;2024-03-23T21:35:55;14.56;63.65
63407;SHT31;49543;45.892;10.838;2024-03-23T21:38:20;14.57;63.78
63407;SHT31;49543;45.892;10.838;2024-03-23T21:43:17;14.56;64.13
63407;SHT31;49543;45.892;10.838;2024-03-23T21:45:42;14.56;64.19
63407;SHT31;49543;45.892;10.838;2024-03-23T21:48:17;14.51;63.87
63407;SHT31;49543;45.892;10.838;2024-03-23T21:50:42;14.52;64.69
63407;SHT31;49543;45.892;10.838;2024-03-23T21:53:07;14.48;64.42
63407;SHT31;49543;45.892;10.838;2024-03-23T21:55:32;14.44;64.43
63407;SHT31;49543;45.892;10.838;2024-03-23T21:57:58;14.44;64.27
63407;SHT31;49543;45.892;10.838;2024-03-23T22:00:23;14.38;63.97
63407;SHT31;49543;45.892;10.838;2024-03-23T22:02:48;14.37;63.07
63407;SHT31;49543;45.892;10.838;2024-03-23T22:05:14;14.36;62.64
63407;SHT31;49543;45.892;10.838;2024-03-23T22:07:39;14.31;63.53
63407;SHT31;49543;45.892;10.838;2024-03-23T22:10:04;14.27;63.74
63407;SHT31;49543;45.892;10.838;2024-03-23T22:12:31;14.26;64.07
63407;SHT31;49543;45.892;10.838;2024-03-23T22:14:57;14.19;64.13
63407;SHT31;49543;45.892;10.838;2024-03-23T22:17:22;14.19;63.95
63407;SHT31;49543;45.892;10.838;2024-03-23T22:19:48;14.14;65.05
63407;SHT31;49543;45.892;10.838;2024-03-23T22:22:14;14.10;65.20
63407;SHT31;49543;45.892;10.838;2024-03-23T22:24:39;14.09;65.11
63407;SHT31;49543;45.892;10.838;2024-03-23T22:27:05;14.09;65.01
63407;SHT31;49543;45.892;10.838;2024-03-23T22:29:30;14.03;63.72
63407;SHT31;49543;45.892;10.838;2024-03-23T22:31:55;14.02;63.44
63407;SHT31;49543;45.892;10.838;2024-03-23T22:34:21;13.99;64.44
63407;SHT31;49543;45.892;10.838;2024-03-23T22:36:46;13.95;64.37
63407;SHT31;49543;45.892;10.838;2024-03-23T22:39:11;13.93;64.27
63407;SHT31;49543;45.892;10.838;2024-03-23T22:41:37;13.89;64.41
63407;SHT31;49543;45.892;10.838;2024-03-23T22:44:02;13.86;64.47
63407;SHT31;49543;45.892;10.838;2024-03-23T22:46:27;13.82;64.34
63407;SHT31;49543;45.892;10.838;2024-03-23T22:48:52;13.78;63.05
63407;SHT31;49543;45.892;10.838;2024-03-23T22:51:18;13.76;63.29
63407;SHT31;49543;45.892;10.838;2024-03-23T22:53:44;13.75;63.96
63407;SHT31;49543;45.892;10.838;2024-03-23T22:56:09;13.75;63.26
63407;SHT31;49543;45.892;10.838;2024-03-23T22:58:35;13.69;64.37
63407;SHT31;49543;45.892;10.838;2024-03-23T23:01:00;13.67;63.47
63407;SHT31;49543;45.892;10.838;2024-03-23T23:03:32;13.64;64.16
63407;SHT31;49543;45.892;10.838;2024-03-23T23:06:04;13.59;65.03
63407;SHT31;49543;45.892;10.838;2024-03-23T23:08:30;13.55;64.09
63407;SHT31;49543;45.892;10.838;2024-03-23T23:10:55;13.54;63.56
63407;SHT31;49543;45.892;10.838;2024-03-23T23:13:20;13.58;64.02
63407;SHT31;49543;45.892;10.838;2024-03-23T23:15:46;13.61;64.69
63407;SHT31;49543;45.892;10.838;2024-03-23T23:18:12;13.61;64.62
63407;SHT31;49543;45.892;10.838;2024-03-23T23:20:42;13.58;64.08
63407;SHT31;49543;45.892;10.838;2024-03-23T23:23:07;13.57;63.34
63407;SHT31;49543;45.892;10.838;2024-03-23T23:25:33;13.55;63.05
63407;SHT31;49543;45.892;10.838;2024-03-23T23:27:58;13.54;61.90
63407;SHT31;49543;45.892;10.838;2024-03-23T23:30:23;13.55;61.67
63407;SHT31;49543;45.892;10.838;2024-03-23T23:32:48;13.57;61.10
63407;SHT31;49543;45.892;10.838;2024-03-23T23:35:14;13.57;61.33
63407;SHT31;49543;45.892;10.838;2024-03-23T23:37:39;13.55;62.57
63407;SHT31;49543;45.892;10.838;2024-03-23T23:40:05;13.55;62.46
63407;SHT31;49543;45.892;10.838;2024-03-23T23:42:30;13.51;62.74
63407;SHT31;49543;45.892;10.838;2024-03-23T23:44:58;13.46;61.86
63407;SHT31;49543;45.892;10.838;2024-03-23T23:47:23;13.43;61.37
63407;SHT31;49543;45.892;10.838;2024-03-23T23:49:48;13.41;61.40
63407;SHT31;49543;45.892;10.838;2024-03-23T23:52:14;13.40;61.26
63407;SHT31;49543;45.892;10.838;2024-03-23T23:54:39;13.37;61.65
63407;SHT31;49543;45.892;10.838;2024-03-23T23:57:05;13.33;60.11
63407;SHT31;49543;45.892;10.838;2024-03-23T23:59:30;13.30;60.84
